Terminal Aerodrome Forecast
Issued by NWS

Home | Current Version | Previous Version | Text Only | Print | Product List | Glossary On
Versions: 1 2 3 4 5 6 7 8 9 10 11 12 13 14 15 16 17 18 19 20 21 22 23 24 25
000
FTUS43 KJKL 022343
TAFSJS
TAF
KSJS 022343Z 0300/0324 00000KT 5SM BR OVC006
      TEMPO 0300/0304 SCT008 BKN015 OVC025
     FM031500 VRB03KT P6SM BKN015
     FM031900 07004KT P6SM BKN025 BKN140
     FM032200 08004KT P6SM VCSH SCT025 BKN140=

USA.gov is the U.S. government's official web portal to all federal, state and local government web resources and services.